Nearby METAR Reports

 

KSFB - Sanford/Orlando, Florida, USA
Distance from station: E 8mi, 12km
Updated: Thu 11/22/18 5:53am EST
Clear
Clear
 Wind from NNW
Wind: NNW 8 mph , 13 km/h
Temperature: 55°F , 13°C
Dew Point: 50°F , 10°C
Humidity: 82%
Barometer: 30.17 inHg , 1021.7 hPa
Clouds: Clear
Visibility: 10 miles , 16 km
2018/11/22 10:53 KSFB 221053Z AUTO 34007KT 10SM CLR 13/10 A3017 RMK AO2 SLP215 T01330100
KORL - Orlando, Florida, USA
Distance from station: S 15mi, 24km
Updated: Thu 11/22/18 5:53am EST
Clear
Clear
 Wind from N
Wind: N 6 mph , 9 km/h
Temperature: 55°F , 13°C
Dew Point: 48°F , 9°C
Humidity: 77%
Barometer: 30.17 inHg , 1021.7 hPa
Clouds: Clear
Visibility: 10 miles , 16 km
2018/11/22 10:53 KORL 221053Z AUTO 01005KT 10SM CLR 13/09 A3017 RMK AO2 SLP220 T01330094
 
KDED - Deland, Florida, USA
Distance from station: N 21mi, 34km
Updated: Thu 11/22/18 6:15am EST
Clear
Clear
 Wind from NNW
Wind: NNW 8 mph , 13 km/h
Temperature: 54°F , 12°C
Dew Point: 48°F , 9°C
Humidity: 82%
Barometer: 30.18 inHg , 1022 hPa
Clouds: Clear
Visibility: 10 miles , 16 km
2018/11/22 11:15 KDED 221115Z AUTO 34007KT 10SM CLR 12/09 A3018 RMK AO2
KMCO - Orlando, Florida, USA
Distance from station: S 24mi, 39km
Updated: Thu 11/22/18 5:53am EST
Few Clouds
Few Clouds
 Wind from N
Wind: N 8 mph , 13 km/h
Temperature: 54°F , 12°C
Dew Point: 48°F , 9°C
Humidity: 82%
Barometer: 30.17 inHg , 1021.7 hPa
Clouds: Few Clouds
Visibility: 10 miles , 16 km
Cloud details: Few Clouds 25000 ft
2018/11/22 10:53 KMCO 221053Z 36007KT 10SM FEW250 12/09 A3017 RMK AO2 SLP216 T01220094
 
KLEE - Leesburg, Florida, USA
Distance from station: W 29mi, 47km
Updated: Thu 11/22/18 5:53am EST
Clear
Clear
 Wind from N
Wind: N 6 mph , 9 km/h
Temperature: 50°F , 10°C
Wind Chill: 48°F , 9°C
Dew Point: 48°F , 9°C
Humidity: 94%
Barometer: 30.19 inHg , 1022.4 hPa
Clouds: Clear
Visibility: 10 miles , 16 km
2018/11/22 10:53 KLEE 221053Z AUTO 36005KT 10SM CLR 10/09 A3019 RMK AO2 SLP222 T01000089
KEVB - New Smyrna Beach, Florida, USA
Distance from station: NE 31mi, 49km
Updated: Wed 11/21/18 9:47pm EST
NOT Current
Clear
Clear
 Wind from NNE
Wind: NNE 7 mph , 11 km/h
Temperature: 63°F , 17°C
Dew Point: 45°F , 7°C
Humidity: 52%
Barometer: 30.21 inHg , 1023 hPa
Clouds: Clear
Visibility: 10 miles , 16 km
2018/11/22 02:47 KEVB 220247Z 03006KT 10SM CLR 17/07 A3021 RMK LAST
 
KDAB - Daytona Beach, Florida, USA
Distance from station: NNE 33mi, 53km
Updated: Thu 11/22/18 5:53am EST
Few Clouds
Few Clouds
 Wind from NW
Wind: NW 6 mph , 9 km/h
Temperature: 54°F , 12°C
Dew Point: 52°F , 11°C
Humidity: 94%
Barometer: 30.17 inHg , 1021.7 hPa
Clouds: Few Clouds
Visibility: 10 miles , 16 km
Cloud details: Few Clouds 13000 ft
Few Clouds 25000 ft
2018/11/22 10:53 KDAB 221053Z 31005KT 10SM FEW130 FEW250 12/11 A3017 RMK AO2 SLP216 T01170106
KISM - Kissimmee/Orland, Florida, USA
Distance from station: S 34mi, 55km
Updated: Thu 11/22/18 5:56am EST
Clear
Clear
 Wind from NNE
Wind: NNE 3 mph , 6 km/h
Temperature: 57°F , 14°C
Dew Point: 48°F , 9°C
Humidity: 72%
Barometer: 30.18 inHg , 1022 hPa
Clouds: Clear
Visibility: 10 miles , 16 km
2018/11/22 10:56 KISM 221056Z AUTO 03003KT 10SM CLR 14/09 A3018 RMK AO2 SLP222 T01440094 PNO $
 
KTIX - Titusville, Florida, USA
Distance from station: ESE 38mi, 61km
Updated: Wed 11/21/18 8:48pm EST
NOT Current
Clear
Clear
 Wind from NNE
Wind: NNE 10 mph , 17 km/h
Temperature: 68°F , 20°C
Dew Point: 55°F , 13°C
Humidity: 64%
Barometer: 30.18 inHg , 1022 hPa
Clouds: Clear
Visibility: 7 miles , 11 km
2018/11/22 01:48 KTIX 220148Z 03009KT 7SM CLR 20/13 A3018 RMK LAST
KOMN - Ormond Beach Vor, Florida, USA
Distance from station: NNE 39mi, 63km
Updated: Wed 11/21/18 6:50pm EST
NOT Current
Clear
Clear
 Wind from calm
Wind: Calm
Temperature: 63°F , 17°C
Dew Point: 55°F , 13°C
Humidity: 77%
Barometer: 30.16 inHg , 1021.3 hPa
Clouds: Clear
Visibility: 7 miles , 11 km
2018/11/21 23:50 KOMN 212350Z 00000KT 7SM CLR 17/13 A3016 RMK LAST
 
KTTS - Nasa Shuttle Fcl, Florida, USA
Distance from station: ESE 39mi, 63km
Updated: Thu 11/22/18 5:56am EST
Clear
Clear
 Wind from NNW
Wind: NNW 5 mph , 7 km/h
Temperature: 55°F , 13°C
Dew Point: 52°F , 11°C
Humidity: 88%
Barometer: 30.15 inHg , 1021 hPa
Clouds: Clear
Visibility: 10 miles , 16 km
2018/11/22 10:56 KTTS 221056Z AUTO 33004KT 10SM CLR 13/11 A3015 RMK AO2 SLP214 T01320113 $
KVVG - The Villages, Florida, USA
Distance from station: WNW 40mi, 64km
Updated: Wed 02/14/18 2:10pm EST
NOT Current

 Wind from calm
Wind: Calm
Temperature: 73°F , 23°C
Dew Point: 66°F , 19°C
Humidity: 78%
Barometer: 30.29 inHg , 1025.7 hPa
Visibility: 10 miles , 16 km
2018/02/14 19:10 KVVG 141910Z AUTO 00000KT 10SM 23/19 A3029 RMK A01
 
KXMR - Cape Canaveral, Florida, USA
Distance from station: ESE 51mi, 83km
Updated: Thu 11/22/18 5:56am EST
Clear
Clear
 Wind from NNW
Wind: NNW 6 mph , 9 km/h
Temperature: 63°F , 17°C
Dew Point: 54°F , 12°C
Humidity: 73%
Barometer: 30.14 inHg , 1020.7 hPa
Clouds: Clear
Visibility: 10 miles , 16 km
2018/11/22 10:56 KXMR 221056Z AUTO 34005KT 10SM CLR 17/12 A3014 RMK AO2 SLP210 T01710116 $
KGIF - Winter Haven, Florida, USA
Distance from station: SSW 55mi, 88km
Updated: Thu 11/22/18 5:53am EST
Clear
Clear
 Wind from NNE
Wind: NNE 7 mph , 11 km/h
Temperature: 57°F , 14°C
Dew Point: 48°F , 9°C
Humidity: 72%
Barometer: 30.19 inHg , 1022.4 hPa
Clouds: Clear
Visibility: 10 miles , 16 km
2018/11/22 10:53 KGIF 221053Z AUTO 03006KT 10SM CLR 14/09 A3019 RMK AO2 SLP220 T01390094
 
KCOF - Patrick Afb/Coco, Florida, USA
Distance from station: SE 58mi, 94km
Updated: Thu 11/22/18 5:56am EST
Clear
Clear
 Wind from NNW
Wind: NNW 10 mph , 17 km/h
Clouds: Clear
Visibility: 10 miles , 16 km
2018/11/22 10:56 KCOF 221056Z AUTO 34009KT 10SM CLR M M RMK AO2 SLPNO RVRNO $
KINF - Inverness, Florida, USA
Distance from station: W 59mi, 95km
Updated: Fri 09/21/18 11:35am EDT
NOT Current
Haze, Mostly cloudy
Haze, Mostly cloudy
 Wind from calm
Wind: Calm
Temperature: 88°F , 31°C
Heat Index: 100°F , 38°C
Dew Point: 77°F , 25°C
Humidity: 70%
Barometer: 30.11 inHg , 1019.6 hPa
Summary: Haze
Clouds: Mostly cloudy
Visibility: 5 miles , 8 km
Cloud details: Mostly cloudy 2700 ft
Mostly cloudy 3700 ft
Mostly cloudy 5000 ft
2018/09/21 15:35 KINF 211535Z AUTO 00000KT 5SM HZ BKN027 BKN037 BKN050 31/25 A3011 RMK AO2
 
KOCF - Ocala Muni, Florida, USA
Distance from station: WNW 60mi, 96km
Updated: Thu 11/22/18 5:51am EST
Clear
Clear
 Wind from N
Wind: N 3 mph , 6 km/h
Temperature: 46°F , 8°C
Dew Point: 45°F , 7°C
Humidity: 93%
Barometer: 30.21 inHg , 1023 hPa
Clouds: Clear
Visibility: 10 miles , 16 km
2018/11/22 10:51 KOCF 221051Z AUTO 35003KT 10SM CLR 08/07 A3021 RMK AO2 SLP233 T00780067
KZPH - Zephyrhills, Florida, USA
Distance from station: SW 61mi, 99km
Updated: Thu 11/22/18 6:35am EST
Clear
Clear
 Wind from calm
Wind: Calm
Temperature: 50°F , 10°C
Dew Point: 48°F , 9°C
Humidity: 94%
Barometer: 30.21 inHg , 1023 hPa
Clouds: Clear
Visibility: 10 miles , 16 km
2018/11/22 11:35 KZPH 221135Z AUTO 00000KT 10SM CLR 10/09 A3021 RMK AO2 T00990094
 
KMLB - Melbourne, Florida, USA
Distance from station: SE 62mi, 100km
Updated: Thu 11/22/18 5:53am EST
Clear
Clear
 Wind from WNW
Wind: WNW 8 mph , 13 km/h
Temperature: 57°F , 14°C
Dew Point: 52°F , 11°C
Humidity: 82%
Barometer: 30.15 inHg , 1021 hPa
Clouds: Clear
Visibility: 10 miles , 16 km
2018/11/22 10:53 KMLB 221053Z AUTO 29007KT 10SM CLR 14/11 A3015 RMK AO2 SLP208 T01440111
KBOW - Bartow Municipal, Florida, USA
Distance from station: SSW 63mi, 102km
Updated: Wed 11/21/18 4:48pm EST
NOT Current
Clear
Clear
 Wind from NE
Wind: NE 6 mph , 9 km/h
Temperature: 75°F , 24°C
Dew Point: 57°F , 14°C
Humidity: 54%
Barometer: 30.12 inHg , 1020 hPa
Clouds: Clear
Visibility: 10 miles , 16 km
2018/11/21 21:48 KBOW 212148Z 04005KT 10SM SKC 24/14 A3012